createdAt,value
2022-08-03T00:01:38.697Z,60.66
2022-08-03T00:04:06.671Z,60.50
2022-08-03T00:06:37.129Z,60.44
2022-08-03T00:09:05.907Z,62.24
2022-08-03T00:11:33.333Z,62.60
2022-08-03T00:14:01.451Z,63.19
2022-08-03T00:16:28.770Z,63.17
2022-08-03T00:18:56.102Z,63.04
2022-08-03T00:21:23.279Z,62.46
2022-08-03T00:23:50.754Z,62.90
2022-08-03T00:26:20.996Z,62.38
2022-08-03T00:28:49.029Z,62.75
2022-08-03T00:31:16.347Z,64.02
2022-08-03T00:33:59.264Z,63.16
2022-08-03T00:36:30.574Z,64.30
2022-08-03T00:38:57.742Z,64.79
2022-08-03T00:41:24.980Z,64.64
2022-08-03T00:43:52.345Z,64.29
2022-08-03T00:46:22.604Z,64.20
2022-08-03T00:48:50.622Z,65.08
2022-08-03T00:51:19.290Z,65.26
2022-08-03T00:53:46.651Z,64.17
2022-08-03T00:56:17.820Z,65.83
2022-08-03T00:58:46.567Z,64.78
2022-08-03T01:01:15.417Z,63.90
2022-08-03T01:03:42.794Z,64.64
2022-08-03T01:06:13.575Z,63.57
2022-08-03T01:09:14.165Z,64.27
2022-08-03T01:12:00.106Z,63.00
2022-08-03T01:14:44.537Z,62.92
2022-08-03T01:17:25.169Z,63.16
2022-08-03T01:20:14.543Z,62.82
2022-08-03T01:23:00.548Z,62.26
2022-08-03T01:26:06.247Z,62.16
2022-08-03T01:28:58.395Z,61.85
2022-08-03T01:33:02.784Z,61.83
2022-08-03T01:34:56.450Z,61.55
2022-08-03T01:37:32.080Z,61.40
2022-08-03T01:40:02.389Z,63.92
2022-08-03T01:42:31.700Z,64.12
2022-08-03T01:45:01.271Z,63.58
2022-08-03T01:47:30.815Z,62.95
2022-08-03T01:49:59.286Z,62.28
2022-08-03T01:52:27.855Z,61.76
2022-08-03T01:54:55.879Z,63.57
2022-08-03T01:57:25.512Z,62.41
2022-08-03T01:59:55.937Z,63.80
2022-08-03T02:02:33.138Z,62.86
2022-08-03T02:05:04.314Z,62.08
2022-08-03T02:07:33.144Z,61.96
2022-08-03T02:10:03.009Z,62.25
2022-08-03T02:12:33.901Z,61.62
2022-08-03T02:15:23.225Z,61.45
2022-08-03T02:17:50.990Z,61.60
2022-08-03T02:20:19.685Z,61.23
2022-08-03T02:22:47.362Z,61.37
2022-08-03T02:25:16.272Z,60.80
2022-08-03T02:27:49.425Z,60.91
2022-08-03T02:30:17.168Z,60.91
2022-08-03T02:32:51.811Z,61.29
2022-08-03T02:35:23.466Z,61.00
2022-08-03T02:37:56.239Z,61.06
2022-08-03T02:40:28.239Z,61.09
2022-08-03T02:43:03.870Z,63.19
2022-08-03T02:45:33.071Z,62.33
2022-08-03T02:48:03.238Z,62.60
2022-08-03T02:50:31.938Z,62.27
2022-08-03T02:53:01.806Z,63.02
2022-08-03T02:55:30.737Z,64.39
2022-08-03T02:58:01.482Z,64.11
2022-08-03T03:00:31.947Z,64.71
2022-08-03T03:03:02.905Z,65.14
2022-08-03T03:05:55.339Z,64.30
2022-08-03T03:08:26.213Z,63.91
2022-08-03T03:10:58.455Z,63.60
2022-08-03T03:13:28.468Z,63.57
2022-08-03T03:15:59.673Z,63.77
2022-08-03T03:18:29.207Z,63.76
2022-08-03T03:20:58.143Z,63.10
2022-08-03T03:23:26.363Z,63.06
2022-08-03T03:25:56.182Z,62.58
2022-08-03T03:28:25.189Z,62.96
2022-08-03T03:30:53.478Z,63.84
2022-08-03T03:33:22.846Z,62.90
2022-08-03T03:35:51.948Z,63.29
2022-08-03T03:38:20.003Z,62.87
2022-08-03T03:40:47.759Z,62.55
2022-08-03T03:43:15.268Z,62.42
2022-08-03T03:45:43.356Z,61.96
2022-08-03T03:48:11.254Z,61.73
2022-08-03T03:50:41.082Z,61.30
2022-08-03T03:53:13.758Z,61.14
2022-08-03T03:55:57.907Z,60.86
2022-08-03T03:58:28.185Z,61.62
2022-08-03T04:00:55.455Z,62.07
2022-08-03T04:03:23.457Z,61.68
2022-08-03T04:06:09.711Z,61.27
2022-08-03T04:08:55.204Z,61.24
2022-08-03T04:12:01.258Z,61.82
2022-08-03T04:14:35.384Z,60.79
2022-08-03T04:17:04.014Z,61.04
2022-08-03T04:19:38.770Z,60.47
2022-08-03T04:22:11.434Z,60.72
2022-08-03T04:24:43.451Z,61.83
2022-08-03T04:27:14.525Z,61.43
2022-08-03T04:29:48.441Z,62.83
2022-08-03T04:32:17.828Z,61.39
2022-08-03T04:34:46.208Z,61.33
2022-08-03T04:37:25.592Z,60.87
2022-08-03T04:39:57.575Z,61.11
2022-08-03T04:42:26.035Z,61.20
2022-08-03T04:45:00.844Z,61.24
2022-08-03T04:47:34.922Z,61.44
2022-08-03T04:50:05.597Z,60.91
2022-08-03T04:52:37.143Z,60.71
2022-08-03T04:55:04.788Z,61.33
2022-08-03T04:57:32.159Z,60.80
2022-08-03T05:00:02.996Z,60.77
2022-08-03T05:02:35.177Z,60.40
2022-08-03T05:05:02.489Z,60.49
2022-08-03T05:07:35.953Z,60.43
2022-08-03T05:10:10.167Z,60.10
2022-08-03T05:12:46.733Z,60.38
2022-08-03T05:15:15.404Z,60.20
2022-08-03T05:17:42.963Z,60.09
2022-08-03T05:20:11.416Z,59.84
2022-08-03T05:22:38.851Z,60.01
2022-08-03T05:25:06.708Z,59.82
2022-08-03T05:27:33.895Z,60.19
2022-08-03T05:30:30.810Z,59.90
2022-08-03T05:32:49.612Z,60.61
2022-08-03T05:36:02.728Z,60.25
2022-08-03T05:38:04.067Z,60.29
2022-08-03T05:40:33.212Z,59.79
2022-08-03T05:43:01.946Z,60.09
2022-08-03T05:45:29.341Z,59.86
2022-08-03T05:47:56.718Z,59.61
2022-08-03T05:50:24.254Z,59.90
2022-08-03T05:52:51.662Z,60.00
2022-08-03T05:55:19.255Z,59.93
2022-08-03T05:57:48.146Z,59.89
2022-08-03T06:00:17.284Z,60.82
2022-08-03T06:02:45.590Z,60.79
2022-08-03T06:05:13.129Z,60.87
2022-08-03T06:07:40.424Z,60.50
2022-08-03T06:10:37.024Z,60.92
2022-08-03T06:12:57.640Z,60.87
2022-08-03T06:15:25.063Z,60.58
2022-08-03T06:17:52.610Z,60.43
2022-08-03T06:20:21.263Z,60.32
2022-08-03T06:23:00.465Z,61.21
2022-08-03T06:25:29.047Z,60.46
2022-08-03T06:27:56.553Z,60.58
2022-08-03T06:30:23.863Z,60.48
2022-08-03T06:32:52.145Z,60.25
2022-08-03T06:35:20.614Z,60.29
2022-08-03T06:37:52.120Z,59.90
2022-08-03T06:40:29.422Z,60.50
2022-08-03T06:42:59.168Z,60.29
2022-08-03T06:45:31.991Z,59.77
2022-08-03T06:48:06.848Z,60.47
2022-08-03T06:50:35.901Z,59.90
2022-08-03T06:53:04.338Z,59.66
2022-08-03T06:55:32.619Z,59.54
2022-08-03T06:58:03.203Z,59.63
2022-08-03T07:00:31.183Z,59.82
2022-08-03T07:02:58.693Z,59.91
2022-08-03T07:05:26.018Z,59.72
2022-08-03T07:07:57.904Z,60.69
2022-08-03T07:10:25.509Z,59.71
2022-08-03T07:12:56.568Z,59.92
2022-08-03T07:15:54.560Z,59.61
2022-08-03T07:18:12.603Z,59.85
2022-08-03T07:20:40.337Z,59.85
2022-08-03T07:23:07.522Z,60.06
2022-08-03T07:25:34.725Z,59.37
2022-08-03T07:28:03.644Z,59.34
2022-08-03T07:30:31.061Z,59.15
2022-08-03T07:32:58.333Z,59.14
2022-08-03T07:35:26.539Z,58.84
2022-08-03T07:37:55.132Z,59.43
2022-08-03T07:40:23.091Z,58.18
2022-08-03T07:42:53.497Z,58.31
2022-08-03T07:45:23.618Z,58.40
2022-08-03T07:47:53.222Z,57.72
2022-08-03T07:50:23.043Z,58.19
2022-08-03T07:52:52.303Z,58.04
2022-08-03T07:55:22.007Z,57.57
2022-08-03T07:58:08.152Z,57.25
2022-08-03T08:00:36.421Z,57.03
2022-08-03T08:03:04.887Z,56.44
2022-08-03T08:05:32.483Z,56.39
2022-08-03T08:08:03.342Z,56.48
2022-08-03T08:10:31.020Z,56.33
2022-08-03T08:12:58.740Z,55.71
2022-08-03T08:15:26.129Z,55.66
2022-08-03T08:17:55.723Z,55.22
2022-08-03T08:20:28.704Z,54.64
2022-08-03T08:23:09.588Z,55.13
2022-08-03T08:25:53.292Z,55.07
2022-08-03T08:28:31.016Z,54.83
2022-08-03T08:31:01.191Z,54.54
2022-08-03T08:33:37.635Z,54.45
2022-08-03T08:36:15.080Z,54.07
2022-08-03T08:38:45.144Z,53.64
2022-08-03T08:41:14.752Z,53.31
2022-08-03T08:43:42.614Z,53.39
2022-08-03T08:46:23.628Z,53.13
2022-08-03T08:48:52.962Z,53.36
2022-08-03T08:51:21.854Z,52.69
2022-08-03T08:53:54.000Z,52.81
2022-08-03T08:56:25.893Z,52.99
2022-08-03T08:58:59.378Z,53.21
2022-08-03T09:01:27.491Z,53.11
2022-08-03T09:03:55.378Z,52.31
2022-08-03T09:06:23.600Z,52.17
2022-08-03T09:08:51.447Z,52.14
2022-08-03T09:11:51.784Z,51.50
2022-08-03T09:14:36.677Z,51.49
2022-08-03T09:17:04.168Z,50.78
2022-08-03T09:19:33.067Z,51.06
2022-08-03T09:22:18.752Z,51.19
2022-08-03T09:25:21.700Z,50.70
2022-08-03T09:27:46.605Z,51.25
2022-08-03T09:30:33.175Z,50.30
2022-08-03T09:33:08.307Z,50.92
2022-08-03T09:35:57.778Z,50.26
2022-08-03T09:38:27.638Z,50.30
2022-08-03T09:40:59.836Z,50.46
2022-08-03T09:43:29.057Z,49.89
2022-08-03T09:46:04.324Z,50.23
2022-08-03T09:48:35.148Z,50.05
2022-08-03T09:51:13.627Z,49.71
2022-08-03T09:53:59.696Z,49.19
2022-08-03T09:56:45.352Z,49.35
2022-08-03T09:59:14.611Z,49.59
2022-08-03T10:01:42.750Z,49.23
2022-08-03T10:04:15.279Z,48.71
2022-08-03T10:06:45.425Z,48.65
2022-08-03T10:09:16.718Z,48.81
2022-08-03T10:11:47.020Z,48.59
2022-08-03T10:14:20.289Z,48.68
2022-08-03T10:16:48.374Z,48.30
2022-08-03T10:19:16.705Z,48.07
2022-08-03T10:21:59.238Z,47.83
2022-08-03T10:24:29.704Z,47.58
2022-08-03T10:27:02.671Z,47.22
2022-08-03T10:29:34.084Z,47.29
2022-08-03T10:32:05.923Z,47.42
2022-08-03T10:34:42.602Z,47.53
2022-08-03T10:37:14.352Z,47.24
2022-08-03T10:39:53.639Z,47.08
2022-08-03T10:42:27.353Z,47.02
2022-08-03T10:45:13.493Z,47.25
2022-08-03T10:47:41.813Z,47.35
2022-08-03T10:50:10.407Z,47.28
2022-08-03T10:52:54.627Z,47.40
2022-08-03T10:55:51.017Z,47.52
2022-08-03T10:58:37.246Z,47.41
2022-08-03T11:01:12.582Z,46.80
2022-08-03T11:03:55.204Z,46.67
2022-08-03T11:06:25.000Z,46.49
2022-08-03T11:09:12.902Z,46.22
2022-08-03T11:11:43.527Z,45.96
2022-08-03T11:14:14.898Z,45.93
2022-08-03T11:16:48.428Z,45.59
2022-08-03T11:19:24.301Z,46.04
2022-08-03T11:21:56.530Z,46.04
2022-08-03T11:24:42.797Z,46.05
2022-08-03T11:27:19.571Z,45.71
2022-08-03T11:29:57.671Z,44.44
2022-08-03T11:32:41.278Z,44.88
2022-08-03T11:35:35.663Z,45.29
2022-08-03T11:38:05.658Z,44.88
2022-08-03T11:40:37.399Z,44.27
2022-08-03T11:43:10.419Z,44.45
2022-08-03T11:45:38.350Z,44.79
2022-08-03T11:48:17.171Z,44.83
2022-08-03T11:50:45.685Z,45.03
2022-08-03T11:53:18.574Z,44.79
2022-08-03T11:55:50.622Z,44.47
2022-08-03T11:59:15.398Z,44.51
2022-08-03T12:01:21.227Z,44.59
2022-08-03T12:03:50.959Z,44.48
2022-08-03T12:06:19.479Z,44.44
2022-08-03T12:08:47.060Z,44.34
2022-08-03T12:11:16.307Z,44.11
2022-08-03T12:14:44.209Z,44.35
2022-08-03T12:16:36.870Z,44.40
2022-08-03T12:19:07.074Z,44.46
2022-08-03T12:21:34.467Z,44.99
2022-08-03T12:24:04.947Z,44.62
2022-08-03T12:26:56.802Z,44.93
2022-08-03T12:29:26.774Z,45.05
2022-08-03T12:31:56.070Z,45.33
2022-08-03T12:34:23.601Z,45.19
2022-08-03T12:36:53.152Z,45.20
2022-08-03T12:39:24.452Z,45.72
2022-08-03T12:41:55.976Z,45.36
2022-08-03T12:44:31.486Z,45.89
2022-08-03T12:46:59.919Z,45.62
2022-08-03T12:49:30.487Z,45.73
2022-08-03T12:52:05.309Z,47.08
2022-08-03T12:54:36.242Z,48.23
2022-08-03T12:57:16.350Z,48.83
2022-08-03T12:59:53.510Z,49.04
2022-08-03T13:02:24.085Z,49.06
2022-08-03T13:04:54.514Z,49.22
2022-08-03T13:07:23.175Z,49.78
2022-08-03T13:09:54.641Z,49.91
2022-08-03T13:12:24.553Z,49.44
2022-08-03T13:14:57.397Z,49.80
2022-08-03T13:17:25.858Z,49.71
2022-08-03T13:19:53.689Z,49.61
2022-08-03T13:22:23.493Z,49.08
2022-08-03T13:24:53.825Z,49.52
2022-08-03T13:28:10.976Z,49.48
2022-08-03T13:30:09.239Z,49.23
2022-08-03T13:32:36.601Z,49.17
2022-08-03T13:35:04.779Z,49.02
2022-08-03T13:37:32.616Z,48.78
2022-08-03T13:40:02.754Z,49.22
2022-08-03T13:42:32.611Z,48.64
2022-08-03T13:45:01.255Z,48.82
2022-08-03T13:47:31.533Z,48.83
2022-08-03T13:50:00.050Z,48.77
2022-08-03T13:52:33.797Z,48.98
2022-08-03T13:55:05.719Z,49.06
2022-08-03T13:58:11.502Z,48.51
2022-08-03T14:00:27.751Z,48.63
2022-08-03T14:03:04.028Z,48.70
2022-08-03T14:05:33.597Z,48.72
2022-08-03T14:08:03.104Z,48.54
2022-08-03T14:10:37.656Z,48.42
2022-08-03T14:13:06.401Z,48.92
2022-08-03T14:15:38.035Z,48.27
2022-08-03T14:18:15.633Z,48.01
2022-08-03T14:20:49.015Z,48.49
2022-08-03T14:23:19.423Z,48.43
2022-08-03T14:25:51.939Z,48.90
2022-08-03T14:28:23.049Z,48.49
2022-08-03T14:30:54.948Z,48.02
2022-08-03T14:33:23.630Z,48.40
2022-08-03T14:35:52.270Z,47.72
2022-08-03T14:38:20.399Z,48.23
2022-08-03T14:40:48.175Z,48.09
2022-08-03T14:43:18.170Z,47.60
2022-08-03T14:45:45.535Z,47.56
2022-08-03T14:50:26.520Z,47.62
2022-08-03T14:51:00.421Z,47.78
2022-08-03T14:53:29.219Z,47.94
2022-08-03T14:55:56.710Z,47.49
2022-08-03T14:58:27.716Z,47.16
2022-08-03T15:00:56.065Z,47.38
2022-08-03T15:03:25.199Z,47.23
2022-08-03T15:05:54.401Z,47.63
2022-08-03T15:08:23.460Z,47.53
2022-08-03T15:10:50.964Z,47.59
2022-08-03T15:13:20.780Z,47.23
2022-08-03T15:15:48.588Z,47.26
2022-08-03T15:18:16.108Z,47.33
2022-08-03T15:20:45.508Z,47.10
2022-08-03T15:23:15.349Z,47.07
2022-08-03T15:26:28.962Z,47.31
2022-08-03T15:28:32.072Z,47.51
2022-08-03T15:30:59.284Z,47.77
2022-08-03T15:33:26.535Z,47.64
2022-08-03T15:35:54.245Z,47.21
2022-08-03T15:38:26.176Z,47.56
2022-08-03T15:40:55.339Z,47.39
2022-08-03T15:43:23.503Z,47.50
2022-08-03T15:46:12.637Z,47.47
2022-08-03T15:48:39.858Z,47.18
2022-08-03T15:51:09.573Z,47.25
2022-08-03T15:53:37.250Z,47.22
2022-08-03T15:56:10.640Z,46.95
2022-08-03T15:59:04.855Z,47.12
2022-08-03T16:01:28.468Z,47.51
2022-08-03T16:03:55.632Z,47.46
2022-08-03T16:06:35.509Z,47.31
2022-08-03T16:09:24.138Z,47.38
2022-08-03T16:11:53.816Z,47.58
2022-08-03T16:14:32.256Z,47.63
2022-08-03T16:17:04.204Z,47.60
2022-08-03T16:19:31.672Z,47.37
2022-08-03T16:21:59.437Z,47.30
2022-08-03T16:24:28.485Z,47.84
2022-08-03T16:26:56.566Z,48.21
2022-08-03T16:29:24.240Z,47.89
2022-08-03T16:31:52.793Z,48.01
2022-08-03T16:34:20.902Z,48.37
2022-08-03T16:36:48.272Z,48.26
2022-08-03T16:39:15.705Z,48.37
2022-08-03T16:41:54.303Z,47.91
2022-08-03T16:44:30.799Z,48.29
2022-08-03T16:46:59.315Z,47.80
2022-08-03T16:49:55.395Z,48.18
2022-08-03T16:52:16.734Z,47.84
2022-08-03T16:54:53.276Z,48.14
2022-08-03T16:57:56.461Z,47.59
2022-08-03T17:00:10.651Z,47.53
2022-08-03T17:02:41.155Z,47.60
2022-08-03T17:05:15.844Z,47.40
2022-08-03T17:07:47.008Z,46.98
2022-08-03T17:10:22.037Z,47.71
2022-08-03T17:12:54.887Z,48.56
2022-08-03T17:15:51.709Z,47.75
2022-08-03T17:18:14.467Z,46.75
2022-08-03T17:20:45.079Z,47.64
2022-08-03T17:23:40.020Z,47.87
2022-08-03T17:26:21.142Z,48.36
2022-08-03T17:28:57.463Z,48.16
2022-08-03T17:31:32.123Z,47.95
2022-08-03T17:34:13.977Z,48.47
2022-08-03T17:37:03.225Z,48.68
2022-08-03T17:39:55.635Z,47.91
2022-08-03T17:42:29.444Z,48.50
2022-08-03T17:45:02.358Z,47.97
2022-08-03T17:47:42.165Z,48.84
2022-08-03T17:50:24.342Z,48.13
2022-08-03T17:53:07.439Z,48.25
2022-08-03T17:55:55.230Z,48.28
2022-08-03T17:58:39.593Z,47.92
2022-08-03T18:02:01.825Z,48.51
2022-08-03T18:04:30.019Z,48.75
2022-08-03T18:07:11.266Z,49.17
2022-08-03T18:10:03.350Z,49.18
2022-08-03T18:12:41.724Z,49.90
2022-08-03T18:15:21.386Z,49.63
2022-08-03T18:17:58.110Z,50.03
2022-08-03T18:20:41.076Z,49.74
2022-08-03T18:23:24.983Z,49.98
2022-08-03T18:26:01.434Z,50.18
2022-08-03T18:28:29.802Z,50.89
2022-08-03T18:30:58.256Z,50.73
2022-08-03T18:34:18.954Z,50.71
2022-08-03T18:36:21.613Z,50.85
2022-08-03T18:38:52.148Z,51.13
2022-08-03T18:41:33.370Z,51.71
2022-08-03T18:44:08.719Z,54.84
2022-08-03T18:47:15.981Z,56.32
2022-08-03T18:50:05.877Z,56.17
2022-08-03T18:52:53.141Z,55.78
2022-08-03T18:55:33.502Z,56.60
2022-08-03T18:58:34.459Z,57.65
2022-08-03T19:01:57.552Z,57.78
2022-08-03T19:04:12.198Z,58.92
2022-08-03T19:09:40.852Z,60.37
2022-08-03T19:12:30.662Z,61.02
2022-08-03T19:15:12.747Z,59.56
2022-08-03T19:17:53.233Z,60.29
2022-08-03T19:20:28.209Z,59.65
2022-08-03T19:22:57.952Z,58.75
2022-08-03T19:25:34.246Z,58.16
2022-08-03T19:28:07.229Z,57.81
2022-08-03T19:30:39.043Z,57.13
2022-08-03T19:33:08.343Z,56.76
2022-08-03T19:35:51.720Z,55.97
2022-08-03T19:38:29.210Z,55.64
2022-08-03T19:41:01.263Z,55.72
2022-08-03T19:43:52.627Z,56.39
2022-08-03T19:46:30.571Z,55.41
2022-08-03T19:49:20.123Z,54.96
2022-08-03T19:51:58.599Z,54.36
2022-08-03T19:54:53.396Z,54.19
2022-08-03T19:57:24.817Z,53.88
2022-08-03T19:59:53.930Z,53.58
2022-08-03T20:02:26.836Z,53.48
2022-08-03T20:04:57.285Z,53.05
2022-08-03T20:07:26.128Z,52.97
2022-08-03T20:09:56.459Z,53.08
2022-08-03T20:12:29.108Z,53.24
2022-08-03T20:14:58.919Z,53.34
2022-08-03T20:17:57.143Z,53.55
2022-08-03T20:20:23.463Z,53.31
2022-08-03T20:22:57.809Z,53.06
2022-08-03T20:25:57.235Z,53.63
2022-08-03T20:28:34.202Z,53.66
2022-08-03T20:31:01.950Z,53.62
2022-08-03T20:36:20.441Z,54.30
2022-08-03T20:38:48.442Z,54.36
2022-08-03T20:41:17.693Z,54.59
2022-08-03T20:43:46.139Z,54.50
2022-08-03T20:46:30.861Z,55.10
2022-08-03T20:49:04.166Z,55.00
2022-08-03T20:51:53.086Z,55.33
2022-08-03T20:54:29.902Z,55.50
2022-08-03T20:57:04.190Z,55.67
2022-08-03T20:59:50.563Z,56.05
2022-08-03T21:02:29.483Z,56.45
2022-08-03T21:05:03.491Z,56.67
2022-08-03T21:08:05.111Z,57.24
2022-08-03T21:10:39.028Z,57.53
2022-08-03T21:13:10.648Z,59.29
2022-08-03T21:13:12.351Z,54.03
2022-08-03T21:13:19.097Z,57.23
2022-08-03T21:16:12.730Z,58.41
2022-08-03T21:18:46.488Z,58.99
2022-08-03T21:21:16.497Z,59.11
2022-08-03T21:23:49.077Z,58.82
2022-08-03T21:26:22.245Z,59.04
2022-08-03T21:28:51.746Z,58.45
2022-08-03T21:31:25.134Z,58.08
2022-08-03T21:33:59.754Z,57.89
2022-08-03T21:36:29.327Z,57.79
2022-08-03T21:38:57.700Z,57.91
2022-08-03T21:41:27.481Z,57.54
2022-08-03T21:43:54.743Z,57.60
2022-08-03T21:46:23.406Z,57.85
2022-08-03T21:50:04.785Z,57.57
2022-08-03T21:51:49.685Z,57.56
2022-08-03T21:54:20.405Z,57.05
2022-08-03T21:56:48.727Z,56.93
2022-08-03T21:59:20.342Z,57.46
2022-08-03T22:01:51.319Z,57.27
2022-08-03T22:04:45.851Z,57.39
2022-08-03T22:07:10.734Z,57.29
2022-08-03T22:09:38.116Z,57.44
2022-08-03T22:12:05.824Z,58.11
2022-08-03T22:14:33.862Z,57.66
2022-08-03T22:17:03.337Z,58.16
2022-08-03T22:19:33.888Z,58.17
2022-08-03T22:22:05.032Z,58.40
2022-08-03T22:24:35.380Z,58.76
2022-08-03T22:27:21.961Z,58.70
2022-08-03T22:29:50.387Z,59.34
2022-08-03T22:32:17.656Z,59.31
2022-08-03T22:34:47.558Z,59.30
2022-08-03T22:37:18.721Z,59.77
2022-08-03T22:39:46.047Z,59.61
2022-08-03T22:42:14.165Z,59.37
2022-08-03T22:44:41.429Z,59.81
2022-08-03T22:47:09.936Z,59.82
2022-08-03T22:49:38.101Z,59.68
2022-08-03T22:52:07.597Z,60.14
2022-08-03T22:54:36.265Z,60.22
2022-08-03T22:57:05.324Z,60.32
2022-08-03T22:59:41.407Z,60.68
2022-08-03T23:02:21.685Z,61.00
2022-08-03T23:04:52.859Z,61.14
2022-08-03T23:07:27.732Z,61.20
2022-08-03T23:09:56.930Z,61.12
2022-08-03T23:12:24.743Z,61.13
2022-08-03T23:14:56.817Z,60.47
2022-08-03T23:17:26.120Z,60.10
2022-08-03T23:19:55.729Z,60.44
2022-08-03T23:22:29.297Z,60.79
2022-08-03T23:24:59.662Z,60.58
2022-08-03T23:27:27.956Z,60.25
2022-08-03T23:29:57.728Z,60.92
2022-08-03T23:32:29.991Z,61.15
2022-08-03T23:35:20.744Z,61.49
2022-08-03T23:38:04.257Z,61.69
2022-08-03T23:40:37.176Z,61.86
2022-08-03T23:43:05.765Z,62.34
2022-08-03T23:45:36.390Z,63.00
2022-08-03T23:48:03.681Z,62.71
2022-08-03T23:50:43.753Z,63.13
2022-08-03T23:53:21.731Z,63.40
2022-08-03T23:56:01.153Z,63.42
2022-08-03T23:58:52.142Z,63.06
